createdAt,value
2023-01-19T00:00:08.892Z,103027.50
2023-01-19T00:05:11.947Z,103023.28
2023-01-19T00:10:14.749Z,103037.31
2023-01-19T00:15:17.559Z,103021.28
2023-01-19T00:20:20.307Z,103035.38
2023-01-19T00:25:23.299Z,103035.88
2023-01-19T00:30:26.241Z,103030.50
2023-01-19T00:35:30.009Z,103057.47
2023-01-19T00:40:32.835Z,103062.47
2023-01-19T00:45:36.032Z,103041.81
2023-01-19T00:50:38.769Z,103055.16
2023-01-19T00:55:41.566Z,103051.44
2023-01-19T01:00:45.140Z,103048.25
2023-01-19T01:05:54.546Z,103028.56
2023-01-19T01:16:17.328Z,103023.94
2023-01-19T01:21:20.080Z,103039.47
2023-01-19T01:26:22.989Z,103069.69
2023-01-19T01:31:26.241Z,103063.84
2023-01-19T01:36:32.428Z,103089.53
2023-01-19T01:41:35.228Z,103065.91
2023-01-19T01:46:38.442Z,103078.50
2023-01-19T01:51:51.313Z,103059.69
2023-01-19T01:56:59.766Z,103057.66
2023-01-19T02:02:25.812Z,103078.38
2023-01-19T02:08:09.750Z,103083.13
2023-01-19T02:13:23.355Z,103098.78
2023-01-19T02:18:29.742Z,103076.72
2023-01-19T02:23:51.025Z,103093.16
2023-01-19T02:29:00.335Z,103058.28
2023-01-19T02:34:04.565Z,103082.22
2023-01-19T02:39:10.328Z,103090.41
2023-01-19T02:44:15.257Z,103069.19
2023-01-19T02:49:18.091Z,103098.22
2023-01-19T02:54:20.925Z,103103.63
2023-01-19T02:59:28.833Z,103117.38
2023-01-19T03:04:57.660Z,103090.09
2023-01-19T03:10:28.338Z,103085.88
2023-01-19T03:16:01.664Z,103079.50
2023-01-19T03:21:07.545Z,103094.94
2023-01-19T03:26:14.872Z,103083.59
2023-01-19T03:31:27.785Z,103085.50
2023-01-19T03:36:36.592Z,103102.13
2023-01-19T03:41:41.679Z,103090.16
2023-01-19T03:46:46.694Z,103088.59
2023-01-19T03:51:49.757Z,103100.81
2023-01-19T03:56:55.644Z,103093.56
2023-01-19T04:01:58.482Z,103091.50
2023-01-19T04:07:01.697Z,103099.38
2023-01-19T04:12:04.775Z,103079.28
2023-01-19T04:17:07.972Z,103100.41
2023-01-19T04:22:10.778Z,103087.38
2023-01-19T04:27:15.380Z,103085.88
2023-01-19T04:32:19.086Z,103087.91
2023-01-19T04:37:22.286Z,103071.72
2023-01-19T04:42:25.370Z,103065.09
2023-01-19T04:47:28.155Z,103109.06
2023-01-19T04:52:35.273Z,103103.91
2023-01-19T04:57:38.165Z,103102.09
2023-01-19T05:02:44.334Z,103110.25
2023-01-19T05:07:47.298Z,103116.38
2023-01-19T05:12:50.112Z,103109.28
2023-01-19T05:17:53.182Z,103144.19
2023-01-19T05:22:55.958Z,103137.44
2023-01-19T05:27:58.817Z,103130.53
2023-01-19T05:33:02.715Z,103151.88
2023-01-19T05:38:05.990Z,103134.13
2023-01-19T05:43:10.569Z,103188.06
2023-01-19T05:48:13.533Z,103186.28
2023-01-19T05:53:17.511Z,103176.47
2023-01-19T05:58:21.214Z,103172.22
2023-01-19T06:03:24.047Z,103181.06
2023-01-19T06:08:27.079Z,103196.50
2023-01-19T06:13:30.081Z,103217.84
2023-01-19T06:18:37.905Z,103219.69
2023-01-19T06:23:40.912Z,103182.19
2023-01-19T06:28:43.866Z,103198.78
2023-01-19T06:33:46.890Z,103209.63
2023-01-19T06:38:49.989Z,103232.28
2023-01-19T06:43:52.789Z,103208.19
2023-01-19T06:48:55.820Z,103218.81
2023-01-19T06:53:59.334Z,103228.66
2023-01-19T06:59:02.129Z,103211.97
2023-01-19T07:04:05.184Z,103220.16
2023-01-19T07:09:10.592Z,103240.41
2023-01-19T07:14:13.469Z,103219.00
2023-01-19T07:19:16.174Z,103218.19
2023-01-19T07:24:19.063Z,103224.34
2023-01-19T07:29:21.975Z,103216.56
2023-01-19T07:34:25.228Z,103201.31
2023-01-19T07:39:28.225Z,103214.19
2023-01-19T07:44:32.392Z,103215.41
2023-01-19T07:49:36.682Z,103191.78
2023-01-19T07:54:39.547Z,103217.94
2023-01-19T07:59:42.464Z,103212.13
2023-01-19T08:04:50.822Z,103215.88
2023-01-19T08:09:54.527Z,103208.91
2023-01-19T08:14:57.524Z,103208.34
2023-01-19T08:20:00.456Z,103218.19
2023-01-19T08:25:04.230Z,103212.91
2023-01-19T08:30:07.525Z,103199.47
2023-01-19T08:35:10.971Z,103201.09
2023-01-19T08:40:14.102Z,103198.91
2023-01-19T08:45:17.029Z,103170.44
2023-01-19T08:50:20.079Z,103156.78
2023-01-19T08:55:29.416Z,103180.41
2023-01-19T09:00:34.860Z,103156.19
2023-01-19T09:05:40.196Z,103184.06
2023-01-19T09:10:49.035Z,103150.56
2023-01-19T09:15:52.864Z,103161.38
2023-01-19T09:20:57.903Z,103165.84
2023-01-19T09:26:03.325Z,103170.34
2023-01-19T09:31:06.956Z,103166.63
2023-01-19T09:36:09.994Z,103161.69
2023-01-19T09:41:21.287Z,103150.31
2023-01-19T09:46:40.105Z,103153.03
2023-01-19T09:51:49.030Z,103154.88
2023-01-19T09:56:54.301Z,103164.00
2023-01-19T10:02:42.293Z,103158.91
2023-01-19T10:07:53.567Z,103171.09
2023-01-19T10:13:15.352Z,103179.16
2023-01-19T10:18:37.089Z,103179.53
2023-01-19T10:24:05.089Z,103187.84
2023-01-19T10:29:24.673Z,103199.06
2023-01-19T10:34:27.679Z,103179.19
2023-01-19T10:39:30.560Z,103165.22
2023-01-19T10:44:38.275Z,103186.53
2023-01-19T10:49:45.302Z,103178.94
2023-01-19T10:54:50.953Z,103177.91
2023-01-19T10:59:53.840Z,103178.66
2023-01-19T11:05:02.340Z,103172.31
2023-01-19T11:10:11.958Z,103178.88
2023-01-19T11:15:24.171Z,103175.34
2023-01-19T11:20:33.624Z,103178.25
2023-01-19T11:25:37.453Z,103152.31
2023-01-19T11:31:14.541Z,103159.06
2023-01-19T11:36:19.416Z,103170.03
2023-01-19T11:41:32.413Z,103176.75
2023-01-19T11:46:39.941Z,103155.22
2023-01-19T11:52:14.092Z,103138.63
2023-01-19T11:57:17.658Z,103146.88
2023-01-19T12:02:38.369Z,103163.25
2023-01-19T12:07:44.381Z,103162.38
2023-01-19T12:12:48.261Z,103162.06
2023-01-19T12:17:54.710Z,103178.75
2023-01-19T12:23:30.463Z,103182.81
2023-01-19T12:28:37.647Z,103186.56
2023-01-19T12:33:40.991Z,103187.38
2023-01-19T12:38:52.471Z,103185.84
2023-01-19T12:44:14.419Z,103185.97
2023-01-19T12:49:23.200Z,103187.69
2023-01-19T12:54:34.604Z,103151.47
2023-01-19T12:59:39.555Z,103179.97
2023-01-19T13:05:20.965Z,103178.72
2023-01-19T13:10:56.992Z,103174.84
2023-01-19T13:16:19.871Z,103173.72
2023-01-19T13:21:32.022Z,103163.13
2023-01-19T13:26:38.886Z,103155.88
2023-01-19T13:31:44.963Z,103171.50
2023-01-19T13:36:55.273Z,103185.75
2023-01-19T13:42:02.879Z,103169.81
2023-01-19T13:47:15.731Z,103181.72
2023-01-19T13:52:29.774Z,103180.91
2023-01-19T13:57:35.018Z,103196.94
2023-01-19T14:02:42.290Z,103195.81
2023-01-19T14:07:45.403Z,103194.16
2023-01-19T14:13:00.370Z,103211.56
2023-01-19T14:18:10.586Z,103232.16
2023-01-19T14:23:38.327Z,103235.84
2023-01-19T14:28:46.640Z,103233.84
2023-01-19T14:33:52.063Z,103234.56
2023-01-19T14:38:58.648Z,103212.03
2023-01-19T14:44:02.069Z,103220.19
2023-01-19T14:49:06.891Z,103214.16
2023-01-19T14:54:18.230Z,103237.63
2023-01-19T14:59:21.080Z,103238.19
2023-01-19T15:04:25.656Z,103241.34
2023-01-19T15:09:28.563Z,103239.63
2023-01-19T15:14:31.529Z,103236.72
2023-01-19T15:19:34.624Z,103237.13
2023-01-19T15:24:37.300Z,103225.91
2023-01-19T15:29:41.178Z,103244.28
2023-01-19T15:34:43.823Z,103228.22
2023-01-19T15:39:46.591Z,103245.44
2023-01-19T15:44:49.598Z,103240.91
2023-01-19T15:49:52.642Z,103263.81
2023-01-19T15:54:55.483Z,103286.56
2023-01-19T15:59:58.348Z,103263.00
2023-01-19T16:05:01.032Z,103275.34
2023-01-19T16:10:09.798Z,103274.81
2023-01-19T16:15:15.362Z,103288.59
2023-01-19T16:20:20.509Z,103270.19
2023-01-19T16:25:29.060Z,103257.75
2023-01-19T16:30:31.878Z,103285.41
2023-01-19T16:35:34.977Z,103267.31
2023-01-19T16:40:37.933Z,103287.16
2023-01-19T16:46:01.935Z,103297.97
2023-01-19T16:51:06.773Z,103259.75
2023-01-19T16:56:14.321Z,103301.47
2023-01-19T17:01:20.332Z,103292.44
2023-01-19T17:06:24.350Z,103287.81
2023-01-19T17:11:30.046Z,103289.78
2023-01-19T17:16:34.528Z,103285.03
2023-01-19T17:21:37.392Z,103287.63
2023-01-19T17:26:40.453Z,103299.91
2023-01-19T17:31:52.796Z,103281.28
2023-01-19T17:37:03.101Z,103297.94
2023-01-19T17:42:06.222Z,103312.94
2023-01-19T17:47:09.002Z,103279.38
2023-01-19T17:52:11.888Z,103280.56
2023-01-19T17:57:14.860Z,103299.69
2023-01-19T18:02:23.743Z,103291.69
2023-01-19T18:07:26.870Z,103281.84
2023-01-19T18:12:29.692Z,103291.03
2023-01-19T18:17:32.535Z,103282.09
2023-01-19T18:22:35.563Z,103290.47
2023-01-19T18:27:38.237Z,103292.63
2023-01-19T18:32:44.224Z,103309.19
2023-01-19T18:37:47.645Z,103308.38
2023-01-19T18:42:51.820Z,103301.34
2023-01-19T18:47:54.615Z,103314.78
2023-01-19T18:52:57.521Z,103305.56
2023-01-19T18:58:00.390Z,103306.22
2023-01-19T19:03:03.322Z,103292.78
2023-01-19T19:08:07.003Z,103291.22
2023-01-19T19:13:12.818Z,103301.81
2023-01-19T19:18:16.570Z,103298.91
2023-01-19T19:23:19.227Z,103313.31
2023-01-19T19:28:22.178Z,103295.44
2023-01-19T19:33:25.312Z,103334.81
2023-01-19T19:38:28.948Z,103321.06
2023-01-19T19:43:35.850Z,103314.53
2023-01-19T19:48:39.612Z,103323.03
2023-01-19T19:53:42.974Z,103310.88
2023-01-19T19:58:45.983Z,103296.84
2023-01-19T20:03:49.325Z,103299.03
2023-01-19T20:08:54.678Z,103314.69
2023-01-19T20:13:57.461Z,103299.09
2023-01-19T20:19:01.104Z,103316.47
2023-01-19T20:24:13.595Z,103302.34
2023-01-19T20:29:18.709Z,103299.16
2023-01-19T20:34:24.389Z,103296.03
2023-01-19T20:39:27.248Z,103301.19
2023-01-19T20:44:30.588Z,103320.09
2023-01-19T20:49:33.435Z,103303.22
2023-01-19T20:54:36.279Z,103319.56
2023-01-19T20:59:41.134Z,103315.44
2023-01-19T21:04:44.071Z,103298.38
2023-01-19T21:09:46.924Z,103315.94
2023-01-19T21:14:49.832Z,103322.53
2023-01-19T21:19:52.894Z,103308.06
2023-01-19T21:24:55.702Z,103326.84
2023-01-19T21:29:59.097Z,103309.56
2023-01-19T21:35:01.917Z,103314.03
2023-01-19T21:40:06.867Z,103301.25
2023-01-19T21:45:10.058Z,103308.44
2023-01-19T21:50:13.025Z,103290.31
2023-01-19T21:55:17.889Z,103309.38
2023-01-19T22:00:21.227Z,103341.59
2023-01-19T22:05:24.505Z,103325.53
2023-01-19T22:10:27.264Z,103292.13
2023-01-19T22:15:31.605Z,103344.38
2023-01-19T22:20:34.362Z,103308.22
2023-01-19T22:25:37.141Z,103299.53
2023-01-19T22:30:40.078Z,103326.16
2023-01-19T22:35:43.001Z,103338.03
2023-01-19T22:40:45.960Z,103340.31
2023-01-19T22:45:48.802Z,103343.22
2023-01-19T22:50:56.436Z,103336.31
2023-01-19T22:55:59.326Z,103346.22
2023-01-19T23:01:09.003Z,103365.47
2023-01-19T23:06:17.326Z,103344.97
2023-01-19T23:11:26.899Z,103348.22
2023-01-19T23:16:29.579Z,103333.56
2023-01-19T23:21:33.325Z,103340.09
2023-01-19T23:26:39.526Z,103358.19
2023-01-19T23:31:48.664Z,103380.69
2023-01-19T23:36:51.560Z,103361.16
2023-01-19T23:41:54.413Z,103349.88
2023-01-19T23:46:58.022Z,103333.50
2023-01-19T23:52:01.056Z,103361.34
2023-01-19T23:57:03.900Z,103359.50
